Paramount Hydra — 2CWC3 — position and weather

sailwx.info

Track history (hours):
 
Tides and Currents Weather Stations Pressure Air Temp Water Temp Dewpoint Dewpoint Depression Visibility Wind Speed Wind Dir Waves Ship Positions

Paramount Hydra

Last reported at 2017-Nov-24 11:00 UTC. Time now 2017-Nov-24 11:05 UTC.
Position N 37°13' W 122°34'.

Length 250 m; draft 10.3 m.

Type: Ship. MMSI: 235076283.

Date/timePositionNaut miles runAvg speedWind from/ knotsBaromVisibWave heightAir tempDewpointWater temp
2017-Nov-24 11:00N 37°13' W 122°34'0 0.8
2017-Nov-24 10:31N 37°14' W 122°34'0 0.9
2017-Nov-24 10:00N 37°14' W 122°35'0 0.3
2017-Nov-24 09:30N 37°14' W 122°35'1 1.8
2017-Nov-24 09:00N 37°13' W 122°36'4 8.0
2017-Nov-24 08:30N 37°09' W 122°38'610.6
2017-Nov-24 07:59N 37°04' W 122°36'510.1
2017-Nov-24 07:30N 36°59' W 122°34'20 9.8
2017-Nov-24 05:30N 36°41' W 122°27'5 9.8
2017-Nov-24 04:59N 36°36' W 122°24'13 9.5
2017-Nov-24 03:38N 36°25' W 122°16'1 9.3
2017-Nov-24 03:30N 36°24' W 122°15'5 9.6
2017-Nov-24 03:00N 36°20' W 122°12'510.0
2017-Nov-24 02:30N 36°15' W 122°10'5 9.7
2017-Nov-24 02:00N 36°11' W 122°08'5 9.6
2017-Nov-24 01:30N 36°06' W 122°06'5 9.6
2017-Nov-24 01:00N 36°01' W 122°04'5 9.6
2017-Nov-24 00:30N 35°57' W 122°03'5 9.6
2017-Nov-24 00:00N 35°52' W 122°02'510.0
2017-Nov-23 23:30N 35°47' W 122°02'5 9.7
2017-Nov-23 23:00N 35°42' W 121°60'5 9.8
2017-Nov-23 22:30N 35°38' W 121°58'5 9.9
2017-Nov-23 22:00N 35°33' W 121°56'510.2
2017-Nov-23 21:30N 35°28' W 121°54'510.4
2017-Nov-23 21:00N 35°23' W 121°52'510.2
2017-Nov-23 20:30N 35°18' W 121°50'510.1
2017-Nov-23 20:00N 35°14' W 121°47'4 8.0
2017-Nov-23 19:30N 35°11' W 121°44'5 9.8
2017-Nov-23 19:00N 35°06' W 121°41'510.4
2017-Nov-23 18:30N 35°01' W 121°40'4 8.4
2017-Nov-23 18:00N 34°60' W 121°35'510.4
2017-Nov-23 17:30N 34°55' W 121°33'510.8
2017-Nov-23 17:00N 34°50' W 121°30'510.8
2017-Nov-23 16:30N 34°45' W 121°27'510.8
2017-Nov-23 16:00N 34°41' W 121°24'510.8
2017-Nov-23 15:30N 34°36' W 121°21'2810.5
2017-Nov-23 12:53N 34°10' W 121°08'810.4
2017-Nov-23 12:08N 34°03' W 121°04'210.3
2017-Nov-23 11:59N 34°02' W 121°03'510.1
2017-Nov-23 11:27N 33°57' W 121°00'610.5
2017-Nov-23 10:53N 33°52' W 120°57'410.3
2017-Nov-23 10:27N 33°48' W 120°55'510.7
2017-Nov-23 10:00N 33°43' W 120°53'510.7
2017-Nov-23 09:30N 33°38' W 120°50'510.8
2017-Nov-23 09:00N 33°33' W 120°47'510.6
2017-Nov-23 08:30N 33°29' W 120°45'510.4
2017-Nov-23 08:00N 33°24' W 120°42'610.4
2017-Nov-23 07:26N 33°19' W 120°39'510.4
2017-Nov-23 06:58N 33°14' W 120°37'810.4
2017-Nov-23 06:10N 33°07' W 120°33'210.4
2017-Nov-23 06:00N 33°05' W 120°32'510.4
2017-Nov-23 05:30N 33°00' W 120°29'510.6
2017-Nov-23 05:00N 32°56' W 120°27'510.6
2017-Nov-23 04:30N 32°51' W 120°24'510.7
2017-Nov-23 04:00N 32°46' W 120°21'1210.8
2017-Nov-23 02:54N 32°35' W 120°15'411.0
2017-Nov-23 02:30N 32°32' W 120°12'610.9
2017-Nov-23 02:00N 32°28' W 120°07'510.7
2017-Nov-23 01:30N 32°25' W 120°02'510.8
2017-Nov-23 01:00N 32°21' W 119°57'1010.6
2017-Nov-23 00:05N 32°15' W 119°49'110.3
2017-Nov-22 23:59N 32°14' W 119°48'610.6
2017-Nov-22 23:24N 32°10' W 119°42'410.8
2017-Nov-22 23:00N 32°07' W 119°38'712.9
2017-Nov-22 22:26N 32°02' W 119°32'713.2
2017-Nov-22 21:56N 31°58' W 119°26'1911.6
2017-Nov-22 20:15N 31°45' W 119°09'310.8
2017-Nov-22 20:00N 31°43' W 119°06'  
2017-Nov-19 18:40N 38°03' W 122°08'0 0.0
2017-Nov-19 18:28N 38°03' W 122°08'0 0.4
2017-Nov-19 18:00N 38°03' W 122°08'2 3.6
2017-Nov-19 17:30N 38°02' W 122°10'4 8.5
2017-Nov-19 17:00N 38°04' W 122°15'5 9.8
2017-Nov-19 16:30N 38°02' W 122°21'510.6
2017-Nov-19 16:00N 37°59' W 122°26'5 9.8
2017-Nov-19 15:31N 37°54' W 122°26'4 7.0
2017-Nov-19 15:01N 37°50' W 122°27'5 9.9
2017-Nov-19 14:30N 37°48' W 122°32'611.9
2017-Nov-19 14:00N 37°45' W 122°39'4 8.2
2017-Nov-19 13:30N 37°41' W 122°41'4 7.7
2017-Nov-19 13:00N 37°38' W 122°40'4 7.8
2017-Nov-19 12:30N 37°34' W 122°40'4 7.7
2017-Nov-19 12:00N 37°30' W 122°40'4 7.7
2017-Nov-19 11:30N 37°26' W 122°40'4 7.5
2017-Nov-19 11:00N 37°22' W 122°39'3 5.8
2017-Nov-19 10:30N 37°19' W 122°39'3 5.7
2017-Nov-19 10:00N 37°17' W 122°39'3 6.4
2017-Nov-19 09:30N 37°13' W 122°39'611.3
2017-Nov-19 09:00N 37°08' W 122°37'611.3
2017-Nov-19 08:30N 37°02' W 122°36'611.2
2017-Nov-19 08:00N 36°57' W 122°34'611.2
2017-Nov-19 07:30N 36°52' W 122°32'611.3
2017-Nov-19 07:00N 36°46' W 122°30'611.5
2017-Nov-19 06:30N 36°41' W 122°27'511.2
2017-Nov-19 06:00N 36°36' W 122°25'510.9
2017-Nov-19 05:30N 36°31' W 122°22'611.0
2017-Nov-19 05:00N 36°25' W 122°20'510.7
2017-Nov-19 04:30N 36°20' W 122°18'510.9
2017-Nov-19 04:00N 36°15' W 122°15'611.3
2017-Nov-19 03:30N 36°10' W 122°12'611.6
2017-Nov-19 03:00N 36°05' W 122°10'611.5
2017-Nov-19 02:30N 35°59' W 122°07'611.5
2017-Nov-19 02:00N 35°54' W 122°05'611.2
2017-Nov-19 01:30N 35°49' W 122°02'511.0
2017-Nov-19 01:00N 35°44' W 121°60'611.3
2017-Nov-19 00:30N 35°39' W 121°56'611.3
2017-Nov-19 00:00N 35°34' W 121°52'611.4
2017-Nov-18 23:30N 35°30' W 121°48'611.3
2017-Nov-18 23:00N 35°25' W 121°44'611.6
2017-Nov-18 22:30N 35°20' W 121°40'611.9
2017-Nov-18 22:00N 35°15' W 121°37'612.0
2017-Nov-18 21:30N 35°10' W 121°33'611.9
2017-Nov-18 21:00N 35°05' W 121°29'611.8
2017-Nov-18 20:30N 34°60' W 121°25'611.8
2017-Nov-18 20:00N 34°55' W 121°22'611.4
2017-Nov-18 19:30N 34°50' W 121°18'611.4
2017-Nov-18 19:00N 34°45' W 121°14'611.4
2017-Nov-18 18:30N 34°40' W 121°10'611.3
2017-Nov-18 18:00N 34°35' W 121°07'611.5
2017-Nov-18 17:29N 34°30' W 121°03'611.5
2017-Nov-18 16:55N 34°25' W 120°59'511.5
2017-Nov-18 16:30N 34°21' W 120°56'611.4
2017-Nov-18 16:00N 34°16' W 120°52'611.3
2017-Nov-18 15:30N 34°11' W 120°48'611.1
2017-Nov-18 14:59N 34°06' W 120°44'511.1
2017-Nov-18 14:30N 34°02' W 120°41'610.8
2017-Nov-18 13:59N 33°57' W 120°37'511.0
2017-Nov-18 13:30N 33°53' W 120°33'611.0
2017-Nov-18 13:00N 33°48' W 120°30'510.5
2017-Nov-18 12:30N 33°46' W 120°24'611.9
2017-Nov-18 12:00N 33°46' W 120°17'611.6
2017-Nov-18 11:30N 33°45' W 120°10'611.2
2017-Nov-18 11:00N 33°44' W 120°04'510.9
2017-Nov-18 10:30N 33°43' W 119°57'611.3
2017-Nov-18 10:00N 33°43' W 119°50'611.6
2017-Nov-18 09:30N 33°42' W 119°43'612.2
2017-Nov-18 09:00N 33°41' W 119°36'611.9
2017-Nov-18 08:30N 33°41' W 119°29'611.8
2017-Nov-18 08:00N 33°40' W 119°22'712.0
2017-Nov-18 07:25N 33°39' W 119°13'511.6
2017-Nov-18 07:00N 33°39' W 119°08'611.7
2017-Nov-18 06:30N 33°38' W 119°01'611.8
2017-Nov-18 06:00N 33°38' W 118°54'611.6
2017-Nov-18 05:30N 33°37' W 118°47'611.5
2017-Nov-18 05:00N 33°36' W 118°40'510.9
2017-Nov-18 04:30N 33°35' W 118°34'911.0
2017-Nov-18 03:41N 33°35' W 118°23'210.9
2017-Nov-18 03:30N 33°35' W 118°20'510.4
2017-Nov-18 03:00N 33°35' W 118°14'510.6
2017-Nov-18 02:30N 33°40' W 118°12'7 0.2
2017-Nov-16 16:05N 33°46' W 118°13'0 0.1
2017-Nov-16 16:00N 33°46' W 118°13'0 0.9
2017-Nov-16 15:30N 33°46' W 118°13'2 3.4
2017-Nov-16 15:00N 33°44' W 118°13'3 5.6
2017-Nov-16 14:30N 33°42' W 118°10'1 2.6
2017-Nov-16 14:00N 33°42' W 118°09'0 0.1
2017-Nov-16 13:25N 33°42' W 118°09'0 0.0
2017-Nov-16 12:55N 33°42' W 118°09'0 0.1
2017-Nov-16 12:25N 33°42' W 118°09'0 0.0
2017-Nov-16 11:55N 33°42' W 118°09'0 0.0
2017-Nov-16 11:25N 33°42' W 118°09'0 0.0
2017-Nov-16 10:19N 33°42' W 118°09'0 0.0
2017-Nov-16 09:55N 33°42' W 118°09'0 0.0
2017-Nov-16 09:25N 33°42' W 118°09'0 0.0
2017-Nov-16 07:25N 33°42' W 118°09'0 0.0
2017-Nov-16 04:43N 33°42' W 118°09'0 0.1
2017-Nov-16 04:25N 33°42' W 118°09'0 0.0
2017-Nov-16 03:49N 33°42' W 118°09'0 0.0
2017-Nov-16 03:25N 33°42' W 118°09'0 0.0
2017-Nov-16 02:55N 33°42' W 118°09'0 0.0
2017-Nov-16 02:01N 33°42' W 118°09'0 0.0
2017-Nov-16 00:07N 33°42' W 118°09'0 0.0
2017-Nov-15 23:46N 33°42' W 118°09'0 0.0
2017-Nov-15 23:19N 33°42' W 118°09'0 0.0
2017-Nov-15 22:58N 33°42' W 118°09'0 0.0
2017-Nov-15 22:16N 33°42' W 118°09'0 0.0
2017-Nov-15 21:55N 33°42' W 118°09'0 0.1
2017-Nov-15 21:25N 33°42' W 118°09'0 0.0
2017-Nov-15 20:55N 33°42' W 118°09'0 0.0
2017-Nov-15 19:13N 33°42' W 118°09'0 0.1
2017-Nov-15 18:55N 33°42' W 118°09'0 0.0
2017-Nov-15 18:25N 33°42' W 118°09'0 0.0
2017-Nov-15 17:55N 33°42' W 118°09'0 0.0
2017-Nov-15 17:25N 33°42' W 118°09'0 0.0
2017-Nov-15 16:55N 33°42' W 118°09'0 0.0
2017-Nov-15 16:25N 33°42' W 118°09'0 0.1
2017-Nov-15 15:49N 33°42' W 118°09'0 0.1
2017-Nov-15 15:25N 33°42' W 118°09'0 0.0
2017-Nov-15 14:58N 33°42' W 118°09'0 0.0
2017-Nov-15 14:25N 33°42' W 118°09'0 0.0
2017-Nov-15 13:58N 33°42' W 118°09'0 0.0
2017-Nov-15 13:25N 33°42' W 118°09'0 0.0
2017-Nov-15 12:55N 33°42' W 118°09'0 0.0
2017-Nov-15 12:25N 33°42' W 118°09'0 0.0
2017-Nov-15 11:55N 33°42' W 118°09'0 0.1
2017-Nov-15 11:25N 33°42' W 118°09'0 0.0
2017-Nov-15 10:55N 33°42' W 118°09'0 0.0
2017-Nov-15 10:25N 33°42' W 118°09'0 0.0
2017-Nov-15 09:49N 33°42' W 118°09'0 0.0
2017-Nov-15 08:19N 33°42' W 118°09'0 0.0
2017-Nov-15 07:55N 33°42' W 118°09'0 0.0
2017-Nov-15 07:25N 33°42' W 118°09'0 0.0
2017-Nov-15 06:55N 33°42' W 118°09'0 0.0
2017-Nov-15 06:19N 33°42' W 118°09'0 0.0
2017-Nov-15 05:55N 33°42' W 118°09'0 0.0
2017-Nov-15 05:07N 33°42' W 118°09'0 0.0
2017-Nov-15 04:55N 33°42' W 118°09'0 0.0
2017-Nov-15 04:25N 33°42' W 118°09'0 0.0
2017-Nov-15 03:55N 33°42' W 118°09'0 0.1
2017-Nov-15 03:28N 33°42' W 118°09'0 0.1
2017-Nov-15 00:49N 33°42' W 118°09'0 0.6
2017-Nov-15 00:30N 33°42' W 118°09'3 6.1
2017-Nov-15 00:00N 33°39' W 118°10'510.2
2017-Nov-14 23:30N 33°34' W 118°09'510.3
2017-Nov-14 23:00N 33°29' W 118°07'610.5
2017-Nov-14 22:28N 33°24' W 118°05'510.5
2017-Nov-14 22:00N 33°19' W 118°03'5 9.4
2017-Nov-14 21:30N 33°15' W 118°01'4 8.4
2017-Nov-14 21:00N 33°11' W 118°02'510.7
2017-Nov-14 20:30N 33°05' W 118°02'510.9
2017-Nov-14 20:00N 32°60' W 118°03'510.9
2017-Nov-14 19:30N 32°55' W 118°04'611.0
2017-Nov-14 19:00N 32°50' W 118°07'611.1
2017-Nov-14 18:30N 32°45' W 118°11'510.9
2017-Nov-14 18:00N 32°41' W 118°14'510.7
2017-Nov-14 17:30N 32°37' W 118°19'510.5
2017-Nov-14 17:00N 32°34' W 118°24'510.3
2017-Nov-14 16:29N 32°30' W 118°28'510.1
2017-Nov-14 16:00N 32°25' W 118°31'5 9.8
2017-Nov-14 15:30N 32°20' W 118°31'5 9.7
2017-Nov-14 15:00N 32°16' W 118°32'5 9.8
2017-Nov-14 14:30N 32°11' W 118°33'5 9.8
2017-Nov-14 14:00N 32°06' W 118°33'5 9.5
2017-Nov-14 13:30N 32°01' W 118°34'7 9.8
2017-Nov-14 12:46N 31°54' W 118°35'3 9.8
2017-Nov-14 12:28N 31°51' W 118°35'510.0
2017-Nov-14 12:00N 31°46' W 118°36'510.0
2017-Nov-14 11:30N 31°41' W 118°36'  
Track history (hours):
 
Tides and Currents Weather Stations Pressure Air Temp Water Temp Dewpoint Dewpoint Depression Visibility Wind Speed Wind Dir Waves Ship Positions

Paramount Hydra

Last reported at 2017-Nov-24 11:00 UTC. Time now 2017-Nov-24 11:05 UTC.
Position N 37°13' W 122°34'.

Length 250 m; draft 10.3 m.

Type: Ship. MMSI: 235076283.

Date/timePositionNaut miles runAvg speedWind from/ knotsBaromVisibWave heightAir tempDewpointWater temp
2017-Nov-24 11:00N 37°13' W 122°34'0 0.8
2017-Nov-24 10:31N 37°14' W 122°34'0 0.9
2017-Nov-24 10:00N 37°14' W 122°35'0 0.3
2017-Nov-24 09:30N 37°14' W 122°35'1 1.8
2017-Nov-24 09:00N 37°13' W 122°36'4 8.0
2017-Nov-24 08:30N 37°09' W 122°38'610.6
2017-Nov-24 07:59N 37°04' W 122°36'510.1
2017-Nov-24 07:30N 36°59' W 122°34'20 9.8
2017-Nov-24 05:30N 36°41' W 122°27'5 9.8
2017-Nov-24 04:59N 36°36' W 122°24'13 9.5
2017-Nov-24 03:38N 36°25' W 122°16'1 9.3
2017-Nov-24 03:30N 36°24' W 122°15'5 9.6
2017-Nov-24 03:00N 36°20' W 122°12'510.0
2017-Nov-24 02:30N 36°15' W 122°10'5 9.7
2017-Nov-24 02:00N 36°11' W 122°08'5 9.6
2017-Nov-24 01:30N 36°06' W 122°06'5 9.6
2017-Nov-24 01:00N 36°01' W 122°04'5 9.6
2017-Nov-24 00:30N 35°57' W 122°03'5 9.6
2017-Nov-24 00:00N 35°52' W 122°02'510.0
2017-Nov-23 23:30N 35°47' W 122°02'5 9.7
2017-Nov-23 23:00N 35°42' W 121°60'5 9.8
2017-Nov-23 22:30N 35°38' W 121°58'5 9.9
2017-Nov-23 22:00N 35°33' W 121°56'510.2
2017-Nov-23 21:30N 35°28' W 121°54'510.4
2017-Nov-23 21:00N 35°23' W 121°52'510.2
2017-Nov-23 20:30N 35°18' W 121°50'510.1
2017-Nov-23 20:00N 35°14' W 121°47'4 8.0
2017-Nov-23 19:30N 35°11' W 121°44'5 9.8
2017-Nov-23 19:00N 35°06' W 121°41'510.4
2017-Nov-23 18:30N 35°01' W 121°40'4 8.4
2017-Nov-23 18:00N 34°60' W 121°35'510.4
2017-Nov-23 17:30N 34°55' W 121°33'510.8
2017-Nov-23 17:00N 34°50' W 121°30'510.8
2017-Nov-23 16:30N 34°45' W 121°27'510.8
2017-Nov-23 16:00N 34°41' W 121°24'510.8
2017-Nov-23 15:30N 34°36' W 121°21'2810.5
2017-Nov-23 12:53N 34°10' W 121°08'810.4
2017-Nov-23 12:08N 34°03' W 121°04'210.3
2017-Nov-23 11:59N 34°02' W 121°03'510.1
2017-Nov-23 11:27N 33°57' W 121°00'610.5
2017-Nov-23 10:53N 33°52' W 120°57'410.3
2017-Nov-23 10:27N 33°48' W 120°55'510.7
2017-Nov-23 10:00N 33°43' W 120°53'510.7
2017-Nov-23 09:30N 33°38' W 120°50'510.8
2017-Nov-23 09:00N 33°33' W 120°47'510.6
2017-Nov-23 08:30N 33°29' W 120°45'510.4
2017-Nov-23 08:00N 33°24' W 120°42'610.4
2017-Nov-23 07:26N 33°19' W 120°39'510.4
2017-Nov-23 06:58N 33°14' W 120°37'810.4
2017-Nov-23 06:10N 33°07' W 120°33'210.4
2017-Nov-23 06:00N 33°05' W 120°32'510.4
2017-Nov-23 05:30N 33°00' W 120°29'510.6
2017-Nov-23 05:00N 32°56' W 120°27'510.6
2017-Nov-23 04:30N 32°51' W 120°24'510.7
2017-Nov-23 04:00N 32°46' W 120°21'1210.8
2017-Nov-23 02:54N 32°35' W 120°15'411.0
2017-Nov-23 02:30N 32°32' W 120°12'610.9
2017-Nov-23 02:00N 32°28' W 120°07'510.7
2017-Nov-23 01:30N 32°25' W 120°02'510.8
2017-Nov-23 01:00N 32°21' W 119°57'1010.6
2017-Nov-23 00:05N 32°15' W 119°49'110.3
2017-Nov-22 23:59N 32°14' W 119°48'610.6
2017-Nov-22 23:24N 32°10' W 119°42'410.8
2017-Nov-22 23:00N 32°07' W 119°38'712.9
2017-Nov-22 22:26N 32°02' W 119°32'713.2
2017-Nov-22 21:56N 31°58' W 119°26'1911.6
2017-Nov-22 20:15N 31°45' W 119°09'310.8
2017-Nov-22 20:00N 31°43' W 119°06'  
2017-Nov-19 18:40N 38°03' W 122°08'0 0.0
2017-Nov-19 18:28N 38°03' W 122°08'0 0.4
2017-Nov-19 18:00N 38°03' W 122°08'2 3.6
2017-Nov-19 17:30N 38°02' W 122°10'4 8.5
2017-Nov-19 17:00N 38°04' W 122°15'5 9.8
2017-Nov-19 16:30N 38°02' W 122°21'510.6
2017-Nov-19 16:00N 37°59' W 122°26'5 9.8
2017-Nov-19 15:31N 37°54' W 122°26'4 7.0
2017-Nov-19 15:01N 37°50' W 122°27'5 9.9
2017-Nov-19 14:30N 37°48' W 122°32'611.9
2017-Nov-19 14:00N 37°45' W 122°39'4 8.2
2017-Nov-19 13:30N 37°41' W 122°41'4 7.7
2017-Nov-19 13:00N 37°38' W 122°40'4 7.8
2017-Nov-19 12:30N 37°34' W 122°40'4 7.7
2017-Nov-19 12:00N 37°30' W 122°40'4 7.7
2017-Nov-19 11:30N 37°26' W 122°40'4 7.5
2017-Nov-19 11:00N 37°22' W 122°39'3 5.8
2017-Nov-19 10:30N 37°19' W 122°39'3 5.7
2017-Nov-19 10:00N 37°17' W 122°39'3 6.4
2017-Nov-19 09:30N 37°13' W 122°39'611.3
2017-Nov-19 09:00N 37°08' W 122°37'611.3
2017-Nov-19 08:30N 37°02' W 122°36'611.2
2017-Nov-19 08:00N 36°57' W 122°34'611.2
2017-Nov-19 07:30N 36°52' W 122°32'611.3
2017-Nov-19 07:00N 36°46' W 122°30'611.5
2017-Nov-19 06:30N 36°41' W 122°27'511.2
2017-Nov-19 06:00N 36°36' W 122°25'510.9
2017-Nov-19 05:30N 36°31' W 122°22'611.0
2017-Nov-19 05:00N 36°25' W 122°20'510.7
2017-Nov-19 04:30N 36°20' W 122°18'510.9
2017-Nov-19 04:00N 36°15' W 122°15'611.3
2017-Nov-19 03:30N 36°10' W 122°12'611.6
2017-Nov-19 03:00N 36°05' W 122°10'611.5
2017-Nov-19 02:30N 35°59' W 122°07'611.5
2017-Nov-19 02:00N 35°54' W 122°05'611.2
2017-Nov-19 01:30N 35°49' W 122°02'511.0
2017-Nov-19 01:00N 35°44' W 121°60'611.3
2017-Nov-19 00:30N 35°39' W 121°56'611.3
2017-Nov-19 00:00N 35°34' W 121°52'611.4
2017-Nov-18 23:30N 35°30' W 121°48'611.3
2017-Nov-18 23:00N 35°25' W 121°44'611.6
2017-Nov-18 22:30N 35°20' W 121°40'611.9
2017-Nov-18 22:00N 35°15' W 121°37'612.0
2017-Nov-18 21:30N 35°10' W 121°33'611.9
2017-Nov-18 21:00N 35°05' W 121°29'611.8
2017-Nov-18 20:30N 34°60' W 121°25'611.8
2017-Nov-18 20:00N 34°55' W 121°22'611.4
2017-Nov-18 19:30N 34°50' W 121°18'611.4
2017-Nov-18 19:00N 34°45' W 121°14'611.4
2017-Nov-18 18:30N 34°40' W 121°10'611.3
2017-Nov-18 18:00N 34°35' W 121°07'611.5
2017-Nov-18 17:29N 34°30' W 121°03'611.5
2017-Nov-18 16:55N 34°25' W 120°59'511.5
2017-Nov-18 16:30N 34°21' W 120°56'611.4
2017-Nov-18 16:00N 34°16' W 120°52'611.3
2017-Nov-18 15:30N 34°11' W 120°48'611.1
2017-Nov-18 14:59N 34°06' W 120°44'511.1
2017-Nov-18 14:30N 34°02' W 120°41'610.8
2017-Nov-18 13:59N 33°57' W 120°37'511.0
2017-Nov-18 13:30N 33°53' W 120°33'611.0
2017-Nov-18 13:00N 33°48' W 120°30'510.5
2017-Nov-18 12:30N 33°46' W 120°24'611.9
2017-Nov-18 12:00N 33°46' W 120°17'611.6
2017-Nov-18 11:30N 33°45' W 120°10'611.2
2017-Nov-18 11:00N 33°44' W 120°04'510.9
2017-Nov-18 10:30N 33°43' W 119°57'611.3
2017-Nov-18 10:00N 33°43' W 119°50'611.6
2017-Nov-18 09:30N 33°42' W 119°43'612.2
2017-Nov-18 09:00N 33°41' W 119°36'611.9
2017-Nov-18 08:30N 33°41' W 119°29'611.8
2017-Nov-18 08:00N 33°40' W 119°22'712.0
2017-Nov-18 07:25N 33°39' W 119°13'511.6
2017-Nov-18 07:00N 33°39' W 119°08'611.7
2017-Nov-18 06:30N 33°38' W 119°01'611.8
2017-Nov-18 06:00N 33°38' W 118°54'611.6
2017-Nov-18 05:30N 33°37' W 118°47'611.5
2017-Nov-18 05:00N 33°36' W 118°40'510.9
2017-Nov-18 04:30N 33°35' W 118°34'911.0
2017-Nov-18 03:41N 33°35' W 118°23'210.9
2017-Nov-18 03:30N 33°35' W 118°20'510.4
2017-Nov-18 03:00N 33°35' W 118°14'510.6
2017-Nov-18 02:30N 33°40' W 118°12'7 0.2
2017-Nov-16 16:05N 33°46' W 118°13'0 0.1
2017-Nov-16 16:00N 33°46' W 118°13'0 0.9
2017-Nov-16 15:30N 33°46' W 118°13'2 3.4
2017-Nov-16 15:00N 33°44' W 118°13'3 5.6
2017-Nov-16 14:30N 33°42' W 118°10'1 2.6
2017-Nov-16 14:00N 33°42' W 118°09'0 0.1
2017-Nov-16 13:25N 33°42' W 118°09'0 0.0
2017-Nov-16 12:55N 33°42' W 118°09'0 0.1
2017-Nov-16 12:25N 33°42' W 118°09'0 0.0
2017-Nov-16 11:55N 33°42' W 118°09'0 0.0
2017-Nov-16 11:25N 33°42' W 118°09'0 0.0
2017-Nov-16 10:19N 33°42' W 118°09'0 0.0
2017-Nov-16 09:55N 33°42' W 118°09'0 0.0
2017-Nov-16 09:25N 33°42' W 118°09'0 0.0
2017-Nov-16 07:25N 33°42' W 118°09'0 0.0
2017-Nov-16 04:43N 33°42' W 118°09'0 0.1
2017-Nov-16 04:25N 33°42' W 118°09'0 0.0
2017-Nov-16 03:49N 33°42' W 118°09'0 0.0
2017-Nov-16 03:25N 33°42' W 118°09'0 0.0
2017-Nov-16 02:55N 33°42' W 118°09'0 0.0
2017-Nov-16 02:01N 33°42' W 118°09'0 0.0
2017-Nov-16 00:07N 33°42' W 118°09'0 0.0
2017-Nov-15 23:46N 33°42' W 118°09'0 0.0
2017-Nov-15 23:19N 33°42' W 118°09'0 0.0
2017-Nov-15 22:58N 33°42' W 118°09'0 0.0
2017-Nov-15 22:16N 33°42' W 118°09'0 0.0
2017-Nov-15 21:55N 33°42' W 118°09'0 0.1
2017-Nov-15 21:25N 33°42' W 118°09'0 0.0
2017-Nov-15 20:55N 33°42' W 118°09'0 0.0
2017-Nov-15 19:13N 33°42' W 118°09'0 0.1
2017-Nov-15 18:55N 33°42' W 118°09'0 0.0
2017-Nov-15 18:25N 33°42' W 118°09'0 0.0
2017-Nov-15 17:55N 33°42' W 118°09'0 0.0
2017-Nov-15 17:25N 33°42' W 118°09'0 0.0
2017-Nov-15 16:55N 33°42' W 118°09'0 0.0
2017-Nov-15 16:25N 33°42' W 118°09'0 0.1
2017-Nov-15 15:49N 33°42' W 118°09'0 0.1
2017-Nov-15 15:25N 33°42' W 118°09'0 0.0
2017-Nov-15 14:58N 33°42' W 118°09'0 0.0
2017-Nov-15 14:25N 33°42' W 118°09'0 0.0
2017-Nov-15 13:58N 33°42' W 118°09'0 0.0
2017-Nov-15 13:25N 33°42' W 118°09'0 0.0
2017-Nov-15 12:55N 33°42' W 118°09'0 0.0
2017-Nov-15 12:25N 33°42' W 118°09'0 0.0
2017-Nov-15 11:55N 33°42' W 118°09'0 0.1
2017-Nov-15 11:25N 33°42' W 118°09'0 0.0
2017-Nov-15 10:55N 33°42' W 118°09'0 0.0
2017-Nov-15 10:25N 33°42' W 118°09'0 0.0
2017-Nov-15 09:49N 33°42' W 118°09'0 0.0
2017-Nov-15 08:19N 33°42' W 118°09'0 0.0
2017-Nov-15 07:55N 33°42' W 118°09'0 0.0
2017-Nov-15 07:25N 33°42' W 118°09'0 0.0
2017-Nov-15 06:55N 33°42' W 118°09'0 0.0
2017-Nov-15 06:19N 33°42' W 118°09'0 0.0
2017-Nov-15 05:55N 33°42' W 118°09'0 0.0
2017-Nov-15 05:07N 33°42' W 118°09'0 0.0
2017-Nov-15 04:55N 33°42' W 118°09'0 0.0
2017-Nov-15 04:25N 33°42' W 118°09'0 0.0
2017-Nov-15 03:55N 33°42' W 118°09'0 0.1
2017-Nov-15 03:28N 33°42' W 118°09'0 0.1
2017-Nov-15 00:49N 33°42' W 118°09'0 0.6
2017-Nov-15 00:30N 33°42' W 118°09'3 6.1
2017-Nov-15 00:00N 33°39' W 118°10'510.2
2017-Nov-14 23:30N 33°34' W 118°09'510.3
2017-Nov-14 23:00N 33°29' W 118°07'610.5
2017-Nov-14 22:28N 33°24' W 118°05'510.5
2017-Nov-14 22:00N 33°19' W 118°03'5 9.4
2017-Nov-14 21:30N 33°15' W 118°01'4 8.4
2017-Nov-14 21:00N 33°11' W 118°02'510.7
2017-Nov-14 20:30N 33°05' W 118°02'510.9
2017-Nov-14 20:00N 32°60' W 118°03'510.9
2017-Nov-14 19:30N 32°55' W 118°04'611.0
2017-Nov-14 19:00N 32°50' W 118°07'611.1
2017-Nov-14 18:30N 32°45' W 118°11'510.9
2017-Nov-14 18:00N 32°41' W 118°14'510.7
2017-Nov-14 17:30N 32°37' W 118°19'510.5
2017-Nov-14 17:00N 32°34' W 118°24'510.3
2017-Nov-14 16:29N 32°30' W 118°28'510.1
2017-Nov-14 16:00N 32°25' W 118°31'5 9.8
2017-Nov-14 15:30N 32°20' W 118°31'5 9.7
2017-Nov-14 15:00N 32°16' W 118°32'5 9.8
2017-Nov-14 14:30N 32°11' W 118°33'5 9.8
2017-Nov-14 14:00N 32°06' W 118°33'5 9.5
2017-Nov-14 13:30N 32°01' W 118°34'7 9.8
2017-Nov-14 12:46N 31°54' W 118°35'3 9.8
2017-Nov-14 12:28N 31°51' W 118°35'510.0
2017-Nov-14 12:00N 31°46' W 118°36'510.0
2017-Nov-14 11:30N 31°41' W 118°36'  

Dump ship's entire track history